createdAt,value
2017-10-11T00:00:23.361Z,0
2017-10-11T00:01:23.357Z,0
2017-10-11T00:02:23.382Z,0
2017-10-11T00:03:23.752Z,0
2017-10-11T00:04:23.424Z,0
2017-10-11T00:05:23.442Z,0
2017-10-11T00:06:23.460Z,0
2017-10-11T00:07:23.487Z,0
2017-10-11T00:08:23.822Z,0
2017-10-11T00:09:23.569Z,0
2017-10-11T00:10:23.550Z,0
2017-10-11T00:11:23.562Z,0
2017-10-11T00:12:23.583Z,0
2017-10-11T00:13:23.601Z,0
2017-10-11T00:14:23.626Z,0
2017-10-11T00:15:23.963Z,0
2017-10-11T00:16:23.665Z,0
2017-10-11T00:17:23.686Z,0
2017-10-11T00:18:23.704Z,0
2017-10-11T00:19:23.720Z,0
2017-10-11T00:20:24.065Z,0
2017-10-11T00:21:23.761Z,0
2017-10-11T00:22:23.775Z,0
2017-10-11T00:23:23.797Z,0
2017-10-11T00:24:23.823Z,0
2017-10-11T00:25:24.491Z,0
2017-10-11T00:26:23.856Z,0
2017-10-11T00:27:24.214Z,0
2017-10-11T00:28:23.943Z,0
2017-10-11T00:29:24.248Z,0
2017-10-11T00:30:23.944Z,0
2017-10-11T00:31:23.987Z,0
2017-10-11T00:32:23.976Z,0
2017-10-11T00:33:24.339Z,0
2017-10-11T00:34:24.020Z,0
2017-10-11T00:35:24.370Z,0
2017-10-11T00:36:24.078Z,0
2017-10-11T00:37:24.719Z,0
2017-10-11T00:38:24.100Z,0
2017-10-11T00:39:24.120Z,0
2017-10-11T00:40:24.474Z,0
2017-10-11T00:41:24.479Z,0
2017-10-11T00:42:24.508Z,0
2017-10-11T00:43:24.246Z,0
2017-10-11T00:44:24.216Z,0
2017-10-11T00:45:24.239Z,0
2017-10-11T00:46:24.269Z,0
2017-10-11T00:47:24.269Z,0
2017-10-11T00:48:24.299Z,0
2017-10-11T00:49:24.318Z,0
2017-10-11T00:50:24.663Z,0
2017-10-11T00:51:24.681Z,0
2017-10-11T00:52:24.711Z,0
2017-10-11T00:53:24.393Z,0
2017-10-11T00:54:24.412Z,0
2017-10-11T00:55:24.437Z,0
2017-10-11T00:56:24.454Z,0
2017-10-11T00:57:24.472Z,0
2017-10-11T00:58:24.544Z,0
2017-10-11T00:59:30.774Z,0
2017-10-11T01:00:24.526Z,0
2017-10-11T01:01:24.554Z,0
2017-10-11T01:02:24.567Z,0
2017-10-11T01:03:24.592Z,0
2017-10-11T01:04:24.605Z,0
2017-10-11T01:05:24.624Z,0
2017-10-11T01:06:25.039Z,0
2017-10-11T01:07:24.675Z,0
2017-10-11T01:08:24.687Z,0
2017-10-11T01:09:24.708Z,0
2017-10-11T01:10:24.733Z,0
2017-10-11T01:11:24.753Z,0
2017-10-11T01:12:25.091Z,0
2017-10-11T01:13:24.995Z,0
2017-10-11T01:14:24.819Z,0
2017-10-11T01:15:24.829Z,0
2017-10-11T01:16:24.843Z,0
2017-10-11T01:17:24.882Z,0
2017-10-11T01:18:24.888Z,0
2017-10-11T01:19:24.908Z,0
2017-10-11T01:20:24.929Z,0
2017-10-11T01:21:25.279Z,0
2017-10-11T01:22:25.011Z,0
2017-10-11T01:23:25.023Z,0
2017-10-11T01:24:25.349Z,0
2017-10-11T01:25:25.362Z,0
2017-10-11T01:26:25.056Z,0
2017-10-11T01:27:25.072Z,0
2017-10-11T01:28:25.425Z,0
2017-10-11T01:29:25.117Z,0
2017-10-11T01:30:25.136Z,0
2017-10-11T01:31:27.179Z,0
2017-10-11T01:32:27.021Z,0
2017-10-11T01:33:25.197Z,0
2017-10-11T01:34:25.576Z,0
2017-10-11T01:35:25.238Z,0
2017-10-11T01:36:25.260Z,0
2017-10-11T01:37:25.274Z,0
2017-10-11T01:38:25.351Z,0
2017-10-11T01:39:25.317Z,0
2017-10-11T01:40:25.342Z,0
2017-10-11T01:41:25.355Z,0
2017-10-11T01:42:25.373Z,0
2017-10-11T01:43:25.409Z,0
2017-10-11T01:44:25.626Z,0
2017-10-11T01:45:25.436Z,0
2017-10-11T01:46:25.457Z,0
2017-10-11T01:47:25.478Z,0
2017-10-11T01:48:25.828Z,0
2017-10-11T01:49:25.520Z,0
2017-10-11T01:50:25.861Z,0
2017-10-11T01:51:25.559Z,0
2017-10-11T01:52:25.578Z,0
2017-10-11T01:53:25.974Z,0
2017-10-11T01:54:25.624Z,0
2017-10-11T01:55:25.650Z,0
2017-10-11T01:56:25.660Z,0
2017-10-11T01:57:25.684Z,0
2017-10-11T01:58:25.700Z,0
2017-10-11T01:59:25.729Z,0
2017-10-11T02:00:26.070Z,0
2017-10-11T02:01:25.761Z,0
2017-10-11T02:02:25.781Z,0
2017-10-11T02:03:25.804Z,0
2017-10-11T02:04:25.842Z,0
2017-10-11T02:05:25.845Z,0
2017-10-11T02:06:25.869Z,0
2017-10-11T02:07:25.882Z,0
2017-10-11T02:08:25.905Z,0
2017-10-11T02:09:25.924Z,0
2017-10-11T02:10:25.993Z,0
2017-10-11T02:11:26.620Z,0
2017-10-11T02:12:25.994Z,0
2017-10-11T02:13:26.004Z,0
2017-10-11T02:14:26.027Z,0
2017-10-11T02:15:26.045Z,0
2017-10-11T02:16:26.072Z,0
2017-10-11T02:17:26.086Z,0
2017-10-11T02:18:26.109Z,0
2017-10-11T02:19:26.456Z,0
2017-10-11T02:20:26.796Z,0
2017-10-11T02:21:26.166Z,0
2017-10-11T02:22:26.180Z,0
2017-10-11T02:23:26.528Z,0
2017-10-11T02:24:26.221Z,0
2017-10-11T02:25:26.255Z,0
2017-10-11T02:26:26.313Z,0
2017-10-11T02:27:26.286Z,0
2017-10-11T02:28:26.311Z,0
2017-10-11T02:29:26.321Z,0
2017-10-11T02:30:26.343Z,0
2017-10-11T02:31:26.365Z,0
2017-10-11T02:32:26.711Z,0
2017-10-11T02:33:26.737Z,0
2017-10-11T02:34:26.426Z,0
2017-10-11T02:35:26.448Z,0
2017-10-11T02:36:26.497Z,0
2017-10-11T02:37:26.493Z,0
2017-10-11T02:38:26.504Z,0
2017-10-11T02:39:26.521Z,0
2017-10-11T02:40:26.539Z,0
2017-10-11T02:41:26.558Z,0
2017-10-11T02:42:26.584Z,0
2017-10-11T02:43:26.600Z,0
2017-10-11T02:44:26.623Z,0
2017-10-11T02:45:26.962Z,0
2017-10-11T02:46:26.996Z,0
2017-10-11T02:47:26.696Z,0
2017-10-11T02:48:26.698Z,0
2017-10-11T02:49:26.725Z,0
2017-10-11T02:50:27.065Z,0
2017-10-11T02:51:27.091Z,0
2017-10-11T02:52:26.781Z,0
2017-10-11T02:53:26.800Z,0
2017-10-11T02:54:27.141Z,0
2017-10-11T02:55:26.837Z,0
2017-10-11T02:56:27.183Z,0
2017-10-11T02:57:26.875Z,0
2017-10-11T02:58:26.893Z,0
2017-10-11T02:59:26.969Z,0
2017-10-11T03:00:26.932Z,0
2017-10-11T03:01:26.957Z,0
2017-10-11T03:02:26.980Z,0
2017-10-11T03:03:26.992Z,0
2017-10-11T03:04:27.010Z,0
2017-10-11T03:05:27.044Z,0
2017-10-11T03:06:27.050Z,0
2017-10-11T03:07:27.073Z,0
2017-10-11T03:08:27.102Z,0
2017-10-11T03:09:27.440Z,0
2017-10-11T03:10:27.125Z,0
2017-10-11T03:11:27.799Z,0
2017-10-11T03:12:27.165Z,0
2017-10-11T03:13:27.186Z,0
2017-10-11T03:14:27.202Z,0
2017-10-11T03:15:27.228Z,0
2017-10-11T03:16:27.297Z,0
2017-10-11T03:17:27.275Z,0
2017-10-11T03:18:27.295Z,0
2017-10-11T03:19:27.625Z,0
2017-10-11T03:20:27.323Z,0
2017-10-11T03:21:27.337Z,0
2017-10-11T03:22:27.367Z,0
2017-10-11T03:23:28.034Z,0
2017-10-11T03:24:27.473Z,0
2017-10-11T03:25:27.433Z,0
2017-10-11T03:26:27.446Z,0
2017-10-11T03:27:27.452Z,0
2017-10-11T03:28:27.492Z,0
2017-10-11T03:29:27.525Z,0
2017-10-11T03:30:27.864Z,0
2017-10-11T03:31:27.858Z,0
2017-10-11T03:32:27.556Z,0
2017-10-11T03:33:27.574Z,0
2017-10-11T03:34:27.592Z,0
2017-10-11T03:35:27.615Z,0
2017-10-11T03:36:27.635Z,0
2017-10-11T03:37:27.997Z,0
2017-10-11T03:38:27.674Z,0
2017-10-11T03:39:27.715Z,0
2017-10-11T03:40:27.763Z,0
2017-10-11T03:41:27.731Z,0
2017-10-11T03:42:27.740Z,0
2017-10-11T03:43:27.771Z,0
2017-10-11T03:44:27.780Z,0
2017-10-11T03:45:27.802Z,0
2017-10-11T03:46:27.822Z,0
2017-10-11T03:47:27.842Z,0
2017-10-11T03:48:27.912Z,0
2017-10-11T03:49:27.890Z,0
2017-10-11T03:50:28.230Z,0
2017-10-11T03:51:27.918Z,0
2017-10-11T03:52:27.934Z,0
2017-10-11T03:53:27.956Z,0
2017-10-11T03:54:27.980Z,0
2017-10-11T03:55:28.320Z,0
2017-10-11T03:56:28.019Z,0
2017-10-11T03:57:28.042Z,0
2017-10-11T03:58:28.051Z,0
2017-10-11T03:59:28.070Z,0
2017-10-11T04:00:28.090Z,0
2017-10-11T04:01:28.115Z,0
2017-10-11T04:02:28.131Z,0
2017-10-11T04:03:28.195Z,0
2017-10-11T04:04:28.165Z,0
2017-10-11T04:05:28.186Z,0
2017-10-11T04:06:28.207Z,0
2017-10-11T04:07:28.219Z,0
2017-10-11T04:08:28.572Z,0
2017-10-11T04:09:28.260Z,0
2017-10-11T04:10:28.607Z,0
2017-10-11T04:11:28.628Z,0
2017-10-11T04:12:28.319Z,0
2017-10-11T04:13:28.335Z,0
2017-10-11T04:14:29.002Z,0
2017-10-11T04:15:28.379Z,0
2017-10-11T04:16:28.723Z,0
2017-10-11T04:17:28.422Z,0
2017-10-11T04:18:28.486Z,0
2017-10-11T04:19:28.771Z,0
2017-10-11T04:20:28.797Z,0
2017-10-11T04:21:28.491Z,0
2017-10-11T04:22:28.505Z,0
2017-10-11T04:23:28.529Z,0
2017-10-11T04:24:28.552Z,0
2017-10-11T04:25:28.564Z,0
2017-10-11T04:26:28.595Z,0
2017-10-11T04:27:28.604Z,0
2017-10-11T04:28:28.624Z,0
2017-10-11T04:29:28.646Z,0
2017-10-11T04:30:28.666Z,0
2017-10-11T04:31:28.687Z,0
2017-10-11T04:32:28.709Z,0
2017-10-11T04:33:28.768Z,0
2017-10-11T04:34:29.060Z,0
2017-10-11T04:35:28.772Z,0
2017-10-11T04:36:28.778Z,0
2017-10-11T04:37:29.450Z,0
2017-10-11T04:38:28.821Z,0
2017-10-11T04:39:29.172Z,0
2017-10-11T04:40:28.853Z,0
2017-10-11T04:41:28.869Z,0
2017-10-11T04:42:28.898Z,0
2017-10-11T04:43:28.912Z,0
2017-10-11T04:44:29.593Z,0
2017-10-11T04:45:28.954Z,0
2017-10-11T04:46:28.974Z,0
2017-10-11T04:47:28.986Z,0
2017-10-11T04:48:29.378Z,0
2017-10-11T04:49:29.023Z,0
2017-10-11T04:50:29.050Z,0
2017-10-11T04:51:29.067Z,0
2017-10-11T04:52:29.081Z,0
2017-10-11T04:53:29.105Z,0
2017-10-11T04:54:29.140Z,0
2017-10-11T04:55:29.142Z,0
2017-10-11T04:56:29.163Z,0
2017-10-11T04:57:29.181Z,0
2017-10-11T04:58:29.197Z,0
2017-10-11T04:59:29.209Z,0
2017-10-11T05:00:29.234Z,0
2017-10-11T05:01:29.254Z,0
2017-10-11T05:02:29.269Z,0
2017-10-11T05:03:29.305Z,0
2017-10-11T05:04:29.317Z,0
2017-10-11T05:05:29.329Z,0
2017-10-11T05:06:29.402Z,0
2017-10-11T05:07:29.367Z,0
2017-10-11T05:08:29.410Z,0
2017-10-11T05:09:29.750Z,0
2017-10-11T05:10:29.665Z,0
2017-10-11T05:11:29.443Z,0
2017-10-11T05:12:29.468Z,0
2017-10-11T05:13:29.484Z,0
2017-10-11T05:14:29.505Z,0
2017-10-11T05:15:29.836Z,0
2017-10-11T05:16:29.540Z,0
2017-10-11T05:17:29.890Z,0
2017-10-11T05:18:29.591Z,0
2017-10-11T05:19:29.590Z,0
2017-10-11T05:20:29.606Z,0
2017-10-11T05:21:29.645Z,0
2017-10-11T05:22:29.653Z,0
2017-10-11T05:23:29.999Z,0
2017-10-11T05:24:30.033Z,0
2017-10-11T05:25:29.706Z,5
2017-10-11T05:26:30.043Z,5
2017-10-11T05:27:29.744Z,5
2017-10-11T05:28:29.759Z,5
2017-10-11T05:29:29.782Z,5
2017-10-11T05:30:29.801Z,5
2017-10-11T05:31:29.823Z,5
2017-10-11T05:32:29.837Z,5
2017-10-11T05:33:29.876Z,10
2017-10-11T05:34:29.870Z,10
2017-10-11T05:35:29.894Z,10
2017-10-11T05:36:29.906Z,10
2017-10-11T05:37:29.936Z,10
2017-10-11T05:38:29.956Z,10
2017-10-11T05:39:30.291Z,15
2017-10-11T05:40:29.991Z,15
2017-10-11T05:41:30.377Z,15
2017-10-11T05:42:30.023Z,15
2017-10-11T05:43:30.049Z,20
2017-10-11T05:44:30.075Z,20
2017-10-11T05:45:30.085Z,20
2017-10-11T05:46:30.102Z,20
2017-10-11T05:47:30.123Z,25
2017-10-11T05:48:30.464Z,25
2017-10-11T05:49:30.447Z,25
2017-10-11T05:50:30.185Z,25
2017-10-11T05:51:30.756Z,30
2017-10-11T05:52:30.212Z,30
2017-10-11T05:53:30.496Z,30
2017-10-11T05:54:30.576Z,35
2017-10-11T05:55:30.688Z,35
2017-10-11T05:56:30.282Z,35
2017-10-11T05:57:30.357Z,40
2017-10-11T05:58:30.322Z,40
2017-10-11T05:59:30.343Z,40
2017-10-11T06:00:30.376Z,45
2017-10-11T06:01:30.384Z,45
2017-10-11T06:02:30.399Z,45
2017-10-11T06:03:30.421Z,45
2017-10-11T06:04:30.467Z,50
2017-10-11T06:05:30.458Z,50
2017-10-11T06:06:30.477Z,50
2017-10-11T06:07:30.594Z,55
2017-10-11T06:08:30.525Z,55
2017-10-11T06:09:30.536Z,55
2017-10-11T06:10:30.894Z,60
2017-10-11T06:11:30.897Z,60
2017-10-11T06:12:30.594Z,60
2017-10-11T06:13:30.636Z,65
2017-10-11T06:14:30.627Z,65
2017-10-11T06:15:30.975Z,65
2017-10-11T06:16:30.668Z,65
2017-10-11T06:17:30.696Z,70
2017-10-11T06:18:30.701Z,70
2017-10-11T06:19:30.732Z,70
2017-10-11T06:20:30.891Z,75
2017-10-11T06:21:30.859Z,75
2017-10-11T06:22:30.945Z,80
2017-10-11T06:23:30.888Z,80
2017-10-11T06:24:31.025Z,80
2017-10-11T06:25:30.920Z,80
2017-10-11T06:26:30.856Z,85
2017-10-11T06:27:31.041Z,85
2017-10-11T06:28:31.043Z,85
2017-10-11T06:29:30.919Z,85
2017-10-11T06:30:31.437Z,85
2017-10-11T06:31:32.443Z,90
2017-10-11T06:32:30.990Z,90
2017-10-11T06:33:31.016Z,90
2017-10-11T06:34:31.103Z,90
2017-10-11T06:35:31.466Z,95
2017-10-11T06:36:31.149Z,95
2017-10-11T06:37:31.435Z,95
2017-10-11T06:38:31.096Z,100
2017-10-11T06:39:31.114Z,105
2017-10-11T06:40:31.132Z,105
2017-10-11T06:41:32.105Z,105
2017-10-11T06:42:31.390Z,110
2017-10-11T06:43:31.286Z,110
2017-10-11T06:44:31.509Z,115
2017-10-11T06:45:31.448Z,120
2017-10-11T06:46:31.247Z,120
2017-10-11T06:47:31.328Z,120
2017-10-11T06:48:32.007Z,120
2017-10-11T06:49:31.315Z,120
2017-10-11T06:50:31.325Z,120
2017-10-11T06:51:31.405Z,125
2017-10-11T06:52:31.685Z,125
2017-10-11T06:53:31.385Z,125
2017-10-11T06:54:31.961Z,130
2017-10-11T06:55:31.469Z,130
2017-10-11T06:56:31.534Z,130
2017-10-11T06:57:32.300Z,135
2017-10-11T06:58:31.572Z,135
2017-10-11T06:59:31.611Z,140
2017-10-11T07:00:31.578Z,145
2017-10-11T07:01:31.937Z,145
2017-10-11T07:02:32.245Z,145
2017-10-11T07:03:31.789Z,150
2017-10-11T07:04:32.062Z,150
2017-10-11T07:05:31.962Z,155
2017-10-11T07:06:32.258Z,155
2017-10-11T07:07:31.825Z,160
2017-10-11T07:08:32.053Z,165
2017-10-11T07:09:32.560Z,160
2017-10-11T07:10:31.855Z,155
2017-10-11T07:11:31.989Z,155
2017-10-11T07:12:32.445Z,160
2017-10-11T07:13:32.859Z,160
2017-10-11T07:14:32.073Z,160
2017-10-11T07:15:32.174Z,165
2017-10-11T07:16:32.462Z,170
2017-10-11T07:17:31.865Z,190
2017-10-11T07:18:31.883Z,190
2017-10-11T07:19:32.256Z,200
2017-10-11T07:20:32.290Z,200
2017-10-11T07:21:32.270Z,200
2017-10-11T07:22:31.973Z,200
2017-10-11T07:23:32.340Z,205
2017-10-11T07:24:32.349Z,200
2017-10-11T07:25:32.109Z,205
2017-10-11T07:26:32.454Z,200
2017-10-11T07:27:32.239Z,200
2017-10-11T07:28:32.243Z,190
2017-10-11T07:29:32.506Z,200
2017-10-11T07:30:32.137Z,205
2017-10-11T07:31:32.256Z,205
2017-10-11T07:32:32.174Z,200
2017-10-11T07:33:32.517Z,200
2017-10-11T07:34:32.209Z,195
2017-10-11T07:35:32.784Z,195
2017-10-11T07:36:32.253Z,195
2017-10-11T07:37:32.282Z,200
2017-10-11T07:38:32.705Z,210
2017-10-11T07:39:32.317Z,210
2017-10-11T07:40:32.345Z,210
2017-10-11T07:41:32.374Z,200
2017-10-11T07:42:32.384Z,205
2017-10-11T07:43:32.456Z,215
2017-10-11T07:44:32.423Z,210
2017-10-11T07:45:32.757Z,205
2017-10-11T07:46:32.788Z,215
2017-10-11T07:47:32.505Z,220
2017-10-11T07:48:32.506Z,220
2017-10-11T07:49:32.925Z,220
2017-10-11T07:50:32.896Z,220
2017-10-11T07:51:32.577Z,220
2017-10-11T07:52:32.918Z,210
2017-10-11T07:53:32.633Z,215
2017-10-11T07:54:32.633Z,215
2017-10-11T07:55:32.660Z,210
2017-10-11T07:56:33.102Z,220
2017-10-11T07:57:33.115Z,205
2017-10-11T07:58:32.820Z,220
2017-10-11T07:59:32.855Z,220
2017-10-11T08:00:32.761Z,205
2017-10-11T08:01:32.814Z,205
2017-10-11T08:02:33.097Z,215
2017-10-11T08:03:32.837Z,220
2017-10-11T08:04:32.981Z,230
2017-10-11T08:05:33.277Z,230
2017-10-11T08:06:33.361Z,230
2017-10-11T08:07:33.482Z,225
2017-10-11T08:08:33.113Z,240
2017-10-11T08:09:33.254Z,240
2017-10-11T08:10:33.003Z,235
2017-10-11T08:11:33.895Z,240
2017-10-11T08:12:33.020Z,230
2017-10-11T08:13:33.117Z,255
2017-10-11T08:14:33.386Z,250
2017-10-11T08:15:33.091Z,245
2017-10-11T08:16:33.155Z,245
2017-10-11T08:17:33.445Z,255
2017-10-11T08:18:33.475Z,245
2017-10-11T08:19:33.592Z,245
2017-10-11T08:20:33.203Z,245
2017-10-11T08:21:33.352Z,260
2017-10-11T08:22:33.547Z,265
2017-10-11T08:23:33.408Z,260
2017-10-11T08:24:33.703Z,280
2017-10-11T08:25:33.334Z,280
2017-10-11T08:26:33.330Z,280
2017-10-11T08:27:33.624Z,275
2017-10-11T08:28:33.823Z,280
2017-10-11T08:29:33.394Z,285
2017-10-11T08:30:34.107Z,290
2017-10-11T08:31:33.769Z,280
2017-10-11T08:32:33.459Z,280
2017-10-11T08:33:33.504Z,285
2017-10-11T08:34:33.878Z,285
2017-10-11T08:35:33.556Z,285
2017-10-11T08:36:33.549Z,285
2017-10-11T08:37:33.904Z,275
2017-10-11T08:38:33.910Z,265
2017-10-11T08:39:33.612Z,250
2017-10-11T08:40:33.633Z,245
2017-10-11T08:41:33.983Z,255
2017-10-11T08:42:33.685Z,245
2017-10-11T08:43:34.058Z,285
2017-10-11T08:44:33.727Z,295
2017-10-11T08:45:33.750Z,280
2017-10-11T08:46:33.822Z,295
2017-10-11T08:47:34.128Z,300
2017-10-11T08:48:34.678Z,300
2017-10-11T08:49:34.625Z,295
2017-10-11T08:50:34.788Z,265
2017-10-11T08:51:33.887Z,270
2017-10-11T08:52:34.243Z,285
2017-10-11T08:53:33.925Z,300
2017-10-11T08:54:33.957Z,285
2017-10-11T08:55:33.979Z,300
2017-10-11T08:56:34.003Z,315
2017-10-11T08:57:34.023Z,320
2017-10-11T08:58:34.045Z,315
2017-10-11T08:59:34.067Z,320
2017-10-11T09:00:34.420Z,315
2017-10-11T09:01:34.504Z,300
2017-10-11T09:02:34.140Z,305
2017-10-11T09:03:34.188Z,335
2017-10-11T09:04:34.271Z,335
2017-10-11T09:05:34.215Z,335
2017-10-11T09:06:34.239Z,340
2017-10-11T09:07:34.254Z,350
2017-10-11T09:08:34.287Z,350
2017-10-11T09:09:34.304Z,340
2017-10-11T09:10:34.331Z,330
2017-10-11T09:11:34.354Z,345
2017-10-11T09:12:34.372Z,345
2017-10-11T09:13:34.928Z,345
2017-10-11T09:14:34.492Z,345
2017-10-11T09:15:34.966Z,345
2017-10-11T09:16:34.548Z,350
2017-10-11T09:17:34.943Z,355
2017-10-11T09:18:34.592Z,350
2017-10-11T09:19:34.751Z,345
2017-10-11T09:20:34.715Z,345
2017-10-11T09:21:34.626Z,345
2017-10-11T09:22:34.686Z,345
2017-10-11T09:23:35.230Z,335
2017-10-11T09:24:35.381Z,340
2017-10-11T09:25:35.251Z,340
2017-10-11T09:26:35.659Z,345
2017-10-11T09:27:35.016Z,345
2017-10-11T09:28:34.903Z,345
2017-10-11T09:29:34.843Z,350
2017-10-11T09:30:35.157Z,345
2017-10-11T09:31:34.833Z,345
2017-10-11T09:32:34.908Z,345
2017-10-11T09:33:34.971Z,340
2017-10-11T09:34:34.947Z,340
2017-10-11T09:35:35.264Z,335
2017-10-11T09:36:34.949Z,340
2017-10-11T09:37:35.057Z,345
2017-10-11T09:38:34.991Z,340
2017-10-11T09:39:35.029Z,350
2017-10-11T09:40:35.049Z,350
2017-10-11T09:41:35.091Z,355
2017-10-11T09:42:35.098Z,350
2017-10-11T09:43:35.130Z,350
2017-10-11T09:44:35.150Z,360
2017-10-11T09:45:35.171Z,355
2017-10-11T09:46:35.197Z,355
2017-10-11T09:47:35.217Z,350
2017-10-11T09:48:35.894Z,355
2017-10-11T09:49:35.267Z,350
2017-10-11T09:50:35.285Z,355
2017-10-11T09:51:35.323Z,345
2017-10-11T09:52:35.339Z,355
2017-10-11T09:53:35.368Z,360
2017-10-11T09:54:35.384Z,360
2017-10-11T09:55:35.408Z,365
2017-10-11T09:56:35.669Z,370
2017-10-11T09:57:35.806Z,360
2017-10-11T09:58:35.490Z,365
2017-10-11T09:59:36.003Z,360
2017-10-11T10:00:35.546Z,360
2017-10-11T10:01:35.577Z,370
2017-10-11T10:02:35.577Z,370
2017-10-11T10:03:35.934Z,370
2017-10-11T10:04:35.658Z,375
2017-10-11T10:05:35.656Z,385
2017-10-11T10:06:35.677Z,600
2017-10-11T10:07:35.921Z,1050
2017-10-11T10:08:35.788Z,1405
2017-10-11T10:09:35.760Z,1385
2017-10-11T10:10:36.291Z,1430
2017-10-11T10:11:35.811Z,1535
2017-10-11T10:12:35.836Z,1620
2017-10-11T10:13:35.851Z,1640
2017-10-11T10:14:35.889Z,1610
2017-10-11T10:15:35.935Z,1590
2017-10-11T10:16:35.941Z,1685
2017-10-11T10:17:35.962Z,1670
2017-10-11T10:18:36.311Z,1675
2017-10-11T10:19:36.019Z,1660
2017-10-11T10:20:36.045Z,1555
2017-10-11T10:21:36.076Z,1605
2017-10-11T10:22:36.123Z,1620
2017-10-11T10:23:36.444Z,1630
2017-10-11T10:24:36.216Z,1660
2017-10-11T10:25:36.203Z,1700
2017-10-11T10:26:36.217Z,1705
2017-10-11T10:27:36.584Z,1790
2017-10-11T10:28:36.316Z,1790
2017-10-11T10:29:36.319Z,1735
2017-10-11T10:30:36.981Z,1515
2017-10-11T10:31:36.371Z,1730
2017-10-11T10:32:36.386Z,1650
2017-10-11T10:33:36.425Z,1710
2017-10-11T10:34:36.447Z,1680
2017-10-11T10:35:36.479Z,1690
2017-10-11T10:36:36.521Z,1715
2017-10-11T10:37:36.554Z,1870
2017-10-11T10:38:37.262Z,2060
2017-10-11T10:39:36.638Z,1625
2017-10-11T10:40:36.965Z,1525
2017-10-11T10:41:36.716Z,1460
2017-10-11T10:42:36.699Z,1365
2017-10-11T10:43:36.733Z,1235
2017-10-11T10:44:36.762Z,780
2017-10-11T10:45:36.796Z,610
2017-10-11T10:46:37.217Z,355
2017-10-11T10:47:36.852Z,1065
2017-10-11T10:48:37.212Z,1090
2017-10-11T10:49:36.981Z,1110
2017-10-11T10:50:36.952Z,1110
2017-10-11T10:51:36.983Z,1135
2017-10-11T10:52:37.019Z,1145
2017-10-11T10:53:37.364Z,1210
2017-10-11T10:54:37.086Z,1215
2017-10-11T10:55:37.124Z,1125
2017-10-11T10:56:37.185Z,1085
2017-10-11T10:57:37.164Z,1130
2017-10-11T10:58:37.540Z,1170
2017-10-11T10:59:37.236Z,1280
2017-10-11T11:00:37.268Z,1485
2017-10-11T11:01:37.297Z,1410
2017-10-11T11:02:37.336Z,1600
2017-10-11T11:03:37.366Z,1610
2017-10-11T11:04:37.400Z,1540
2017-10-11T11:05:37.443Z,1570
2017-10-11T11:06:37.461Z,1610
2017-10-11T11:07:38.181Z,1820
2017-10-11T11:08:37.528Z,1860
2017-10-11T11:09:37.567Z,1945
2017-10-11T11:10:37.588Z,1900
2017-10-11T11:11:37.672Z,1665
2017-10-11T11:12:37.656Z,1425
2017-10-11T11:13:37.693Z,1235
2017-10-11T11:14:37.727Z,1130
2017-10-11T11:15:38.080Z,1310
2017-10-11T11:16:37.787Z,1355
2017-10-11T11:17:37.820Z,1550
2017-10-11T11:18:37.862Z,1760
2017-10-11T11:19:37.910Z,515
2017-10-11T11:20:37.945Z,1445
2017-10-11T11:21:37.978Z,1725
2017-10-11T11:22:37.990Z,1745
2017-10-11T11:23:38.029Z,1645
2017-10-11T11:24:38.397Z,1340
2017-10-11T11:25:38.084Z,1775
2017-10-11T11:26:38.114Z,1725
2017-10-11T11:27:38.475Z,1905
2017-10-11T11:28:38.243Z,1885
2017-10-11T11:29:38.222Z,1885
2017-10-11T11:30:38.263Z,2135
2017-10-11T11:31:38.285Z,2180
2017-10-11T11:32:38.318Z,2115
2017-10-11T11:33:38.357Z,2155
2017-10-11T11:34:38.397Z,2150
2017-10-11T11:35:38.446Z,2120
2017-10-11T11:36:38.451Z,2145
2017-10-11T11:37:38.494Z,2200
2017-10-11T11:38:38.526Z,2265
2017-10-11T11:39:38.636Z,2255
2017-10-11T11:40:38.610Z,2365
2017-10-11T11:41:38.659Z,2320
2017-10-11T11:42:39.037Z,2225
2017-10-11T11:43:38.703Z,2335
2017-10-11T11:44:38.781Z,2435
2017-10-11T11:45:39.080Z,2480
2017-10-11T11:46:38.922Z,2450
2017-10-11T11:47:38.864Z,2415
2017-10-11T11:48:38.870Z,2500
2017-10-11T11:49:38.903Z,2300
2017-10-11T11:50:38.938Z,2220
2017-10-11T11:51:38.963Z,2560
2017-10-11T11:52:39.329Z,2735
2017-10-11T11:53:39.049Z,2490
2017-10-11T11:54:39.705Z,2545
2017-10-11T11:55:39.260Z,2665
2017-10-11T11:56:39.142Z,2455
2017-10-11T11:57:39.183Z,2235
2017-10-11T11:58:39.224Z,1750
2017-10-11T11:59:39.309Z,2015
2017-10-11T12:00:39.611Z,990
2017-10-11T12:01:39.644Z,915
2017-10-11T12:02:40.225Z,2665
2017-10-11T12:03:39.457Z,1570
2017-10-11T12:04:40.028Z,2435
2017-10-11T12:05:39.527Z,2575
2017-10-11T12:06:39.516Z,2690
2017-10-11T12:07:39.542Z,2515
2017-10-11T12:08:39.891Z,2700
2017-10-11T12:09:39.620Z,2715
2017-10-11T12:10:39.664Z,2825
2017-10-11T12:11:39.679Z,2655
2017-10-11T12:12:39.715Z,2565
2017-10-11T12:13:39.819Z,2760
2017-10-11T12:14:40.109Z,2810
2017-10-11T12:15:39.880Z,2845
2017-10-11T12:16:39.866Z,2865
2017-10-11T12:17:39.896Z,2770
2017-10-11T12:18:39.934Z,2665
2017-10-11T12:19:39.968Z,2545
2017-10-11T12:20:40.000Z,2475
2017-10-11T12:21:40.413Z,2590
2017-10-11T12:22:40.077Z,2125
2017-10-11T12:23:40.128Z,1465
2017-10-11T12:24:40.475Z,1330
2017-10-11T12:25:40.193Z,1470
2017-10-11T12:26:40.556Z,1785
2017-10-11T12:27:40.262Z,2105
2017-10-11T12:28:40.369Z,1970
2017-10-11T12:29:40.519Z,1905
2017-10-11T12:30:40.465Z,2440
2017-10-11T12:31:40.410Z,2320
2017-10-11T12:32:40.831Z,2070
2017-10-11T12:33:40.895Z,2255
2017-10-11T12:34:40.576Z,2400
2017-10-11T12:35:40.881Z,2185
2017-10-11T12:36:40.588Z,2175
2017-10-11T12:37:40.620Z,2370
2017-10-11T12:38:40.659Z,2465
2017-10-11T12:39:41.009Z,2460
2017-10-11T12:40:40.770Z,2150
2017-10-11T12:41:40.763Z,2080
2017-10-11T12:42:41.120Z,2245
2017-10-11T12:43:40.834Z,2425
2017-10-11T12:44:40.874Z,2380
2017-10-11T12:45:41.617Z,2260
2017-10-11T12:46:40.948Z,2510
2017-10-11T12:47:40.990Z,2465
2017-10-11T12:48:41.010Z,2290
2017-10-11T12:49:41.050Z,2400
2017-10-11T12:50:41.088Z,2485
2017-10-11T12:51:41.447Z,2340
2017-10-11T12:52:41.173Z,2345
2017-10-11T12:53:41.212Z,2450
2017-10-11T12:54:42.077Z,2500
2017-10-11T12:55:41.271Z,2495
2017-10-11T12:56:41.302Z,2510
2017-10-11T12:57:41.343Z,2415
2017-10-11T12:58:41.387Z,2540
2017-10-11T12:59:41.422Z,2720
2017-10-11T13:00:41.613Z,2785
2017-10-11T13:01:41.518Z,2825
2017-10-11T13:02:41.529Z,2795
2017-10-11T13:03:41.624Z,2695
2017-10-11T13:04:41.604Z,2770
2017-10-11T13:05:41.972Z,2680
2017-10-11T13:06:41.680Z,2645
2017-10-11T13:07:41.712Z,2695
2017-10-11T13:08:41.746Z,2655
2017-10-11T13:09:41.789Z,2775
2017-10-11T13:10:41.833Z,2720
2017-10-11T13:11:42.187Z,2610
2017-10-11T13:12:42.250Z,2550
2017-10-11T13:13:41.937Z,2550
2017-10-11T13:14:42.476Z,2665
2017-10-11T13:15:42.018Z,2625
2017-10-11T13:16:42.049Z,2480
2017-10-11T13:17:42.145Z,2620
2017-10-11T13:18:42.183Z,2715
2017-10-11T13:19:42.187Z,2810
2017-10-11T13:20:42.210Z,2800
2017-10-11T13:21:42.236Z,2720
2017-10-11T13:22:42.267Z,2820
2017-10-11T13:23:42.640Z,2420
2017-10-11T13:24:42.481Z,2755
2017-10-11T13:25:42.379Z,2910
2017-10-11T13:26:42.415Z,2925
2017-10-11T13:27:42.452Z,2930
2017-10-11T13:28:42.494Z,2920
2017-10-11T13:29:42.532Z,2875
2017-10-11T13:30:42.584Z,2825
2017-10-11T13:31:42.934Z,2765
2017-10-11T13:32:42.641Z,2580
2017-10-11T13:33:42.730Z,2475
2017-10-11T13:34:42.727Z,2650
2017-10-11T13:35:42.754Z,2720
2017-10-11T13:36:42.825Z,2650
2017-10-11T13:37:42.816Z,2725
2017-10-11T13:38:42.880Z,2740
2017-10-11T13:39:42.898Z,2705
2017-10-11T13:40:42.951Z,2710
2017-10-11T13:41:42.970Z,2850
2017-10-11T13:42:43.354Z,3060
2017-10-11T13:43:43.048Z,3115
2017-10-11T13:44:43.090Z,3070
2017-10-11T13:45:43.126Z,3045
2017-10-11T13:46:43.167Z,2960
2017-10-11T13:47:43.192Z,2870
2017-10-11T13:48:43.230Z,2715
2017-10-11T13:49:43.315Z,2325
2017-10-11T13:50:43.305Z,2390
2017-10-11T13:51:43.349Z,2750
2017-10-11T13:52:43.372Z,2735
2017-10-11T13:53:43.417Z,2725
2017-10-11T13:54:43.950Z,2645
2017-10-11T13:55:43.489Z,2560
2017-10-11T13:56:43.526Z,2535
2017-10-11T13:57:43.561Z,2585
2017-10-11T13:58:43.601Z,2410
2017-10-11T13:59:43.636Z,2710
2017-10-11T14:00:44.125Z,2720
2017-10-11T14:01:43.717Z,2555
2017-10-11T14:02:44.093Z,2630
2017-10-11T14:03:44.108Z,2725